sensor_id;sensor_type;location;lat;lon;timestamp;P1;durP1;ratioP1;P2;durP2;ratioP2
9904;SDS011;4991;43.566;27.820;2023-03-14T00:01:22;8.10;;;5.37;;
9904;SDS011;4991;43.566;27.820;2023-03-14T00:03:48;8.90;;;5.70;;
9904;SDS011;4991;43.566;27.820;2023-03-14T00:06:15;7.43;;;5.20;;
9904;SDS011;4991;43.566;27.820;2023-03-14T00:08:42;7.97;;;5.53;;
9904;SDS011;4991;43.566;27.820;2023-03-14T00:11:12;6.40;;;5.00;;
9904;SDS011;4991;43.566;27.820;2023-03-14T00:13:46;5.73;;;4.10;;
9904;SDS011;4991;43.566;27.820;2023-03-14T00:16:15;5.80;;;4.40;;
9904;SDS011;4991;43.566;27.820;2023-03-14T00:18:41;7.70;;;4.40;;
9904;SDS011;4991;43.566;27.820;2023-03-14T00:21:08;7.27;;;4.67;;
9904;SDS011;4991;43.566;27.820;2023-03-14T00:23:35;8.47;;;6.37;;
9904;SDS011;4991;43.566;27.820;2023-03-14T00:26:03;11.70;;;6.73;;
9904;SDS011;4991;43.566;27.820;2023-03-14T00:28:31;8.93;;;6.07;;
9904;SDS011;4991;43.566;27.820;2023-03-14T00:30:57;8.97;;;6.00;;
9904;SDS011;4991;43.566;27.820;2023-03-14T00:33:23;7.57;;;5.63;;
9904;SDS011;4991;43.566;27.820;2023-03-14T00:35:59;7.27;;;5.30;;
9904;SDS011;4991;43.566;27.820;2023-03-14T00:38:26;9.07;;;5.97;;
9904;SDS011;4991;43.566;27.820;2023-03-14T00:40:53;6.67;;;3.53;;
9904;SDS011;4991;43.566;27.820;2023-03-14T00:43:19;6.00;;;4.73;;
9904;SDS011;4991;43.566;27.820;2023-03-14T00:45:52;8.40;;;4.50;;
9904;SDS011;4991;43.566;27.820;2023-03-14T00:48:19;4.53;;;3.90;;
9904;SDS011;4991;43.566;27.820;2023-03-14T00:50:45;5.10;;;4.17;;
9904;SDS011;4991;43.566;27.820;2023-03-14T00:53:12;6.07;;;3.90;;
9904;SDS011;4991;43.566;27.820;2023-03-14T00:55:41;4.70;;;3.20;;
9904;SDS011;4991;43.566;27.820;2023-03-14T00:58:08;6.20;;;3.90;;
9904;SDS011;4991;43.566;27.820;2023-03-14T01:00:35;8.60;;;4.07;;
9904;SDS011;4991;43.566;27.820;2023-03-14T01:03:00;9.90;;;5.40;;
9904;SDS011;4991;43.566;27.820;2023-03-14T01:05:27;6.33;;;3.97;;
9904;SDS011;4991;43.566;27.820;2023-03-14T01:07:53;7.13;;;4.93;;
9904;SDS011;4991;43.566;27.820;2023-03-14T01:10:18;7.77;;;5.20;;
9904;SDS011;4991;43.566;27.820;2023-03-14T01:12:44;8.87;;;5.33;;
9904;SDS011;4991;43.566;27.820;2023-03-14T01:15:10;6.10;;;4.40;;
9904;SDS011;4991;43.566;27.820;2023-03-14T01:17:35;4.97;;;4.07;;
9904;SDS011;4991;43.566;27.820;2023-03-14T01:20:03;6.83;;;4.37;;
9904;SDS011;4991;43.566;27.820;2023-03-14T01:22:30;5.23;;;3.60;;
9904;SDS011;4991;43.566;27.820;2023-03-14T01:24:56;8.70;;;3.57;;
9904;SDS011;4991;43.566;27.820;2023-03-14T01:27:21;7.67;;;4.47;;
9904;SDS011;4991;43.566;27.820;2023-03-14T01:29:47;4.60;;;3.93;;
9904;SDS011;4991;43.566;27.820;2023-03-14T01:32:13;4.50;;;3.97;;
9904;SDS011;4991;43.566;27.820;2023-03-14T01:34:39;4.63;;;3.50;;
9904;SDS011;4991;43.566;27.820;2023-03-14T01:37:04;5.47;;;3.43;;
9904;SDS011;4991;43.566;27.820;2023-03-14T01:39:31;6.60;;;4.27;;
9904;SDS011;4991;43.566;27.820;2023-03-14T01:41:56;5.60;;;3.67;;
9904;SDS011;4991;43.566;27.820;2023-03-14T01:44:22;4.33;;;3.27;;
9904;SDS011;4991;43.566;27.820;2023-03-14T01:46:48;5.60;;;4.00;;
9904;SDS011;4991;43.566;27.820;2023-03-14T01:52:19;10.37;;;3.60;;
9904;SDS011;4991;43.566;27.820;2023-03-14T01:54:53;3.80;;;3.40;;
9904;SDS011;4991;43.566;27.820;2023-03-14T01:59:52;6.87;;;4.10;;
9904;SDS011;4991;43.566;27.820;2023-03-14T02:02:24;5.40;;;3.60;;
9904;SDS011;4991;43.566;27.820;2023-03-14T02:04:53;5.00;;;3.33;;
9904;SDS011;4991;43.566;27.820;2023-03-14T02:07:22;4.47;;;3.20;;
9904;SDS011;4991;43.566;27.820;2023-03-14T02:09:55;6.87;;;3.70;;
9904;SDS011;4991;43.566;27.820;2023-03-14T02:12:23;5.43;;;3.97;;
9904;SDS011;4991;43.566;27.820;2023-03-14T02:14:48;5.10;;;3.70;;
9904;SDS011;4991;43.566;27.820;2023-03-14T02:17:15;5.67;;;3.33;;
9904;SDS011;4991;43.566;27.820;2023-03-14T02:22:39;4.90;;;3.83;;
9904;SDS011;4991;43.566;27.820;2023-03-14T02:27:53;7.63;;;4.50;;
9904;SDS011;4991;43.566;27.820;2023-03-14T02:30:20;5.77;;;4.03;;
9904;SDS011;4991;43.566;27.820;2023-03-14T02:32:49;6.10;;;4.00;;
9904;SDS011;4991;43.566;27.820;2023-03-14T02:35:21;12.57;;;3.67;;
9904;SDS011;4991;43.566;27.820;2023-03-14T02:37:53;8.63;;;4.23;;
9904;SDS011;4991;43.566;27.820;2023-03-14T02:40:28;9.00;;;4.37;;
9904;SDS011;4991;43.566;27.820;2023-03-14T02:42:53;5.83;;;3.90;;
9904;SDS011;4991;43.566;27.820;2023-03-14T02:47:47;6.70;;;4.87;;
9904;SDS011;4991;43.566;27.820;2023-03-14T02:50:19;5.30;;;3.80;;
9904;SDS011;4991;43.566;27.820;2023-03-14T02:52:47;8.53;;;4.30;;
9904;SDS011;4991;43.566;27.820;2023-03-14T02:55:13;10.17;;;4.80;;
9904;SDS011;4991;43.566;27.820;2023-03-14T02:57:39;7.23;;;4.63;;
9904;SDS011;4991;43.566;27.820;2023-03-14T03:00:05;4.83;;;4.00;;
9904;SDS011;4991;43.566;27.820;2023-03-14T03:02:31;8.10;;;5.10;;
9904;SDS011;4991;43.566;27.820;2023-03-14T03:04:57;8.47;;;5.03;;
9904;SDS011;4991;43.566;27.820;2023-03-14T03:07:23;11.90;;;6.20;;
9904;SDS011;4991;43.566;27.820;2023-03-14T03:09:51;11.43;;;6.37;;
9904;SDS011;4991;43.566;27.820;2023-03-14T03:12:16;15.70;;;5.87;;
9904;SDS011;4991;43.566;27.820;2023-03-14T03:14:42;10.33;;;5.47;;
9904;SDS011;4991;43.566;27.820;2023-03-14T03:17:08;10.23;;;6.27;;
9904;SDS011;4991;43.566;27.820;2023-03-14T03:19:33;8.50;;;5.77;;
9904;SDS011;4991;43.566;27.820;2023-03-14T03:21:59;10.57;;;7.07;;
9904;SDS011;4991;43.566;27.820;2023-03-14T03:24:25;14.03;;;6.20;;
9904;SDS011;4991;43.566;27.820;2023-03-14T03:26:52;8.23;;;4.60;;
9904;SDS011;4991;43.566;27.820;2023-03-14T03:29:18;6.47;;;4.20;;
9904;SDS011;4991;43.566;27.820;2023-03-14T03:31:44;5.20;;;4.70;;
9904;SDS011;4991;43.566;27.820;2023-03-14T03:34:12;8.17;;;4.77;;
9904;SDS011;4991;43.566;27.820;2023-03-14T03:36:39;5.57;;;3.70;;
9904;SDS011;4991;43.566;27.820;2023-03-14T03:39:05;6.13;;;3.77;;
9904;SDS011;4991;43.566;27.820;2023-03-14T03:41:31;4.63;;;4.10;;
9904;SDS011;4991;43.566;27.820;2023-03-14T03:43:57;6.93;;;4.10;;
9904;SDS011;4991;43.566;27.820;2023-03-14T03:46:22;6.60;;;3.47;;
9904;SDS011;4991;43.566;27.820;2023-03-14T03:48:48;16.07;;;4.53;;
9904;SDS011;4991;43.566;27.820;2023-03-14T03:51:14;5.43;;;3.90;;
9904;SDS011;4991;43.566;27.820;2023-03-14T03:53:41;6.57;;;4.47;;
9904;SDS011;4991;43.566;27.820;2023-03-14T03:56:08;6.37;;;3.90;;
9904;SDS011;4991;43.566;27.820;2023-03-14T03:58:34;5.87;;;3.60;;
9904;SDS011;4991;43.566;27.820;2023-03-14T04:01:00;6.87;;;3.87;;
9904;SDS011;4991;43.566;27.820;2023-03-14T04:03:25;12.80;;;4.30;;
9904;SDS011;4991;43.566;27.820;2023-03-14T04:06:01;9.47;;;4.10;;
9904;SDS011;4991;43.566;27.820;2023-03-14T04:08:30;5.27;;;3.30;;
9904;SDS011;4991;43.566;27.820;2023-03-14T04:10:59;7.83;;;4.60;;
9904;SDS011;4991;43.566;27.820;2023-03-14T04:13:26;9.17;;;5.40;;
9904;SDS011;4991;43.566;27.820;2023-03-14T04:15:53;9.60;;;5.73;;
9904;SDS011;4991;43.566;27.820;2023-03-14T04:18:20;9.50;;;6.03;;
9904;SDS011;4991;43.566;27.820;2023-03-14T04:20:46;9.50;;;5.87;;
9904;SDS011;4991;43.566;27.820;2023-03-14T04:23:16;9.03;;;5.60;;
9904;SDS011;4991;43.566;27.820;2023-03-14T04:25:41;8.17;;;5.33;;
9904;SDS011;4991;43.566;27.820;2023-03-14T04:28:07;10.23;;;5.93;;
9904;SDS011;4991;43.566;27.820;2023-03-14T04:30:33;15.10;;;6.73;;
9904;SDS011;4991;43.566;27.820;2023-03-14T04:32:58;15.40;;;7.27;;
9904;SDS011;4991;43.566;27.820;2023-03-14T04:35:24;11.13;;;6.77;;
9904;SDS011;4991;43.566;27.820;2023-03-14T04:37:49;13.57;;;7.97;;
9904;SDS011;4991;43.566;27.820;2023-03-14T04:40:17;12.00;;;6.60;;
9904;SDS011;4991;43.566;27.820;2023-03-14T04:42:43;21.23;;;11.83;;
9904;SDS011;4991;43.566;27.820;2023-03-14T04:45:09;29.30;;;19.13;;
9904;SDS011;4991;43.566;27.820;2023-03-14T04:47:35;21.33;;;13.07;;
9904;SDS011;4991;43.566;27.820;2023-03-14T04:50:01;21.57;;;11.23;;
9904;SDS011;4991;43.566;27.820;2023-03-14T04:52:26;18.27;;;9.23;;
9904;SDS011;4991;43.566;27.820;2023-03-14T04:54:52;14.10;;;7.93;;
9904;SDS011;4991;43.566;27.820;2023-03-14T04:57:17;12.77;;;7.37;;
9904;SDS011;4991;43.566;27.820;2023-03-14T04:59:43;14.40;;;7.67;;
9904;SDS011;4991;43.566;27.820;2023-03-14T05:02:09;10.67;;;6.53;;
9904;SDS011;4991;43.566;27.820;2023-03-14T05:04:34;13.10;;;6.67;;
9904;SDS011;4991;43.566;27.820;2023-03-14T05:07:00;10.40;;;5.77;;
9904;SDS011;4991;43.566;27.820;2023-03-14T05:09:25;11.57;;;6.50;;
9904;SDS011;4991;43.566;27.820;2023-03-14T05:11:51;12.50;;;6.77;;
9904;SDS011;4991;43.566;27.820;2023-03-14T05:14:17;20.07;;;6.40;;
9904;SDS011;4991;43.566;27.820;2023-03-14T05:16:42;14.63;;;6.67;;
9904;SDS011;4991;43.566;27.820;2023-03-14T05:19:09;22.47;;;7.63;;
9904;SDS011;4991;43.566;27.820;2023-03-14T05:21:35;10.57;;;6.07;;
9904;SDS011;4991;43.566;27.820;2023-03-14T05:24:01;16.27;;;8.20;;
9904;SDS011;4991;43.566;27.820;2023-03-14T05:26:26;16.10;;;6.70;;
9904;SDS011;4991;43.566;27.820;2023-03-14T05:28:52;15.43;;;8.40;;
9904;SDS011;4991;43.566;27.820;2023-03-14T05:31:18;21.07;;;9.10;;
9904;SDS011;4991;43.566;27.820;2023-03-14T05:33:43;24.47;;;10.93;;
9904;SDS011;4991;43.566;27.820;2023-03-14T05:36:09;20.10;;;11.93;;
9904;SDS011;4991;43.566;27.820;2023-03-14T05:38:34;29.13;;;11.77;;
9904;SDS011;4991;43.566;27.820;2023-03-14T05:41:00;21.77;;;9.67;;
9904;SDS011;4991;43.566;27.820;2023-03-14T05:43:26;11.43;;;7.07;;
9904;SDS011;4991;43.566;27.820;2023-03-14T05:45:51;13.07;;;6.70;;
9904;SDS011;4991;43.566;27.820;2023-03-14T05:48:17;7.83;;;4.97;;
9904;SDS011;4991;43.566;27.820;2023-03-14T05:50:43;12.57;;;6.30;;
9904;SDS011;4991;43.566;27.820;2023-03-14T05:53:09;14.17;;;6.20;;
9904;SDS011;4991;43.566;27.820;2023-03-14T05:55:35;21.03;;;8.43;;
9904;SDS011;4991;43.566;27.820;2023-03-14T05:58:00;15.77;;;4.80;;
9904;SDS011;4991;43.566;27.820;2023-03-14T06:00:26;11.93;;;5.77;;
9904;SDS011;4991;43.566;27.820;2023-03-14T06:02:51;11.90;;;6.00;;
9904;SDS011;4991;43.566;27.820;2023-03-14T06:05:17;7.67;;;4.87;;
9904;SDS011;4991;43.566;27.820;2023-03-14T06:07:43;7.47;;;4.27;;
9904;SDS011;4991;43.566;27.820;2023-03-14T06:10:08;5.37;;;4.17;;
9904;SDS011;4991;43.566;27.820;2023-03-14T06:12:35;7.83;;;3.20;;
9904;SDS011;4991;43.566;27.820;2023-03-14T06:15:00;4.57;;;3.40;;
9904;SDS011;4991;43.566;27.820;2023-03-14T06:17:26;8.37;;;3.43;;
9904;SDS011;4991;43.566;27.820;2023-03-14T06:19:51;5.90;;;3.30;;
9904;SDS011;4991;43.566;27.820;2023-03-14T06:22:17;5.40;;;2.97;;
9904;SDS011;4991;43.566;27.820;2023-03-14T06:24:43;4.20;;;2.60;;
9904;SDS011;4991;43.566;27.820;2023-03-14T06:27:08;7.20;;;2.90;;
9904;SDS011;4991;43.566;27.820;2023-03-14T06:29:34;8.70;;;3.30;;
9904;SDS011;4991;43.566;27.820;2023-03-14T06:31:59;10.80;;;2.67;;
9904;SDS011;4991;43.566;27.820;2023-03-14T06:34:25;3.70;;;1.93;;
9904;SDS011;4991;43.566;27.820;2023-03-14T06:36:51;3.13;;;2.10;;
9904;SDS011;4991;43.566;27.820;2023-03-14T06:39:16;9.80;;;2.63;;
9904;SDS011;4991;43.566;27.820;2023-03-14T06:41:42;3.50;;;2.30;;
9904;SDS011;4991;43.566;27.820;2023-03-14T06:44:08;7.43;;;3.00;;
9904;SDS011;4991;43.566;27.820;2023-03-14T06:46:33;6.97;;;3.63;;
9904;SDS011;4991;43.566;27.820;2023-03-14T06:48:59;8.17;;;3.70;;
9904;SDS011;4991;43.566;27.820;2023-03-14T06:51:24;7.90;;;3.17;;
9904;SDS011;4991;43.566;27.820;2023-03-14T06:53:50;7.63;;;3.33;;
9904;SDS011;4991;43.566;27.820;2023-03-14T06:56:16;4.53;;;3.00;;
9904;SDS011;4991;43.566;27.820;2023-03-14T06:58:41;5.00;;;2.37;;
9904;SDS011;4991;43.566;27.820;2023-03-14T07:01:14;5.87;;;3.80;;
9904;SDS011;4991;43.566;27.820;2023-03-14T07:03:45;20.77;;;9.00;;
9904;SDS011;4991;43.566;27.820;2023-03-14T07:06:11;5.07;;;2.57;;
9904;SDS011;4991;43.566;27.820;2023-03-14T07:08:36;5.13;;;2.40;;
9904;SDS011;4991;43.566;27.820;2023-03-14T07:11:04;11.67;;;3.27;;
9904;SDS011;4991;43.566;27.820;2023-03-14T07:13:30;4.93;;;2.33;;
9904;SDS011;4991;43.566;27.820;2023-03-14T07:15:55;3.90;;;2.00;;
9904;SDS011;4991;43.566;27.820;2023-03-14T07:18:21;3.33;;;2.60;;
9904;SDS011;4991;43.566;27.820;2023-03-14T07:20:46;4.00;;;2.87;;
9904;SDS011;4991;43.566;27.820;2023-03-14T07:23:12;5.17;;;2.57;;
9904;SDS011;4991;43.566;27.820;2023-03-14T07:25:38;8.67;;;5.03;;
9904;SDS011;4991;43.566;27.820;2023-03-14T07:28:04;7.07;;;2.30;;
9904;SDS011;4991;43.566;27.820;2023-03-14T07:30:29;4.83;;;3.27;;
9904;SDS011;4991;43.566;27.820;2023-03-14T07:32:55;6.37;;;2.50;;
9904;SDS011;4991;43.566;27.820;2023-03-14T07:35:20;6.07;;;2.40;;
9904;SDS011;4991;43.566;27.820;2023-03-14T07:37:46;7.13;;;3.40;;
9904;SDS011;4991;43.566;27.820;2023-03-14T07:40:12;6.73;;;3.40;;
9904;SDS011;4991;43.566;27.820;2023-03-14T07:42:41;5.50;;;2.40;;
9904;SDS011;4991;43.566;27.820;2023-03-14T07:45:09;2.73;;;2.20;;
9904;SDS011;4991;43.566;27.820;2023-03-14T07:47:36;2.33;;;1.67;;
9904;SDS011;4991;43.566;27.820;2023-03-14T07:50:02;2.43;;;1.63;;
9904;SDS011;4991;43.566;27.820;2023-03-14T07:52:29;3.27;;;1.90;;
9904;SDS011;4991;43.566;27.820;2023-03-14T07:54:54;3.47;;;1.80;;
9904;SDS011;4991;43.566;27.820;2023-03-14T07:57:20;3.77;;;2.07;;
9904;SDS011;4991;43.566;27.820;2023-03-14T07:59:45;3.90;;;1.80;;
9904;SDS011;4991;43.566;27.820;2023-03-14T08:02:11;4.83;;;1.57;;
9904;SDS011;4991;43.566;27.820;2023-03-14T08:04:38;2.10;;;1.70;;
9904;SDS011;4991;43.566;27.820;2023-03-14T08:07:05;4.27;;;2.10;;
9904;SDS011;4991;43.566;27.820;2023-03-14T08:09:30;3.40;;;2.20;;
9904;SDS011;4991;43.566;27.820;2023-03-14T08:11:56;5.00;;;2.97;;
9904;SDS011;4991;43.566;27.820;2023-03-14T08:14:21;3.13;;;1.73;;
9904;SDS011;4991;43.566;27.820;2023-03-14T08:16:50;3.10;;;1.53;;
9904;SDS011;4991;43.566;27.820;2023-03-14T08:19:16;5.20;;;2.17;;
9904;SDS011;4991;43.566;27.820;2023-03-14T08:21:42;2.27;;;1.40;;
9904;SDS011;4991;43.566;27.820;2023-03-14T08:24:08;3.27;;;2.30;;
9904;SDS011;4991;43.566;27.820;2023-03-14T08:26:33;4.77;;;2.47;;
9904;SDS011;4991;43.566;27.820;2023-03-14T08:28:59;7.87;;;2.50;;
9904;SDS011;4991;43.566;27.820;2023-03-14T08:31:25;4.53;;;2.20;;
9904;SDS011;4991;43.566;27.820;2023-03-14T08:33:50;2.53;;;1.67;;
9904;SDS011;4991;43.566;27.820;2023-03-14T08:36:20;6.10;;;2.07;;
9904;SDS011;4991;43.566;27.820;2023-03-14T08:38:45;6.13;;;1.90;;
9904;SDS011;4991;43.566;27.820;2023-03-14T08:41:11;6.53;;;1.67;;
9904;SDS011;4991;43.566;27.820;2023-03-14T08:43:37;2.30;;;1.60;;
9904;SDS011;4991;43.566;27.820;2023-03-14T08:46:03;3.37;;;1.70;;
9904;SDS011;4991;43.566;27.820;2023-03-14T08:48:29;3.03;;;1.50;;
9904;SDS011;4991;43.566;27.820;2023-03-14T08:51:13;5.90;;;2.40;;
9904;SDS011;4991;43.566;27.820;2023-03-14T08:53:39;5.70;;;1.40;;
9904;SDS011;4991;43.566;27.820;2023-03-14T08:56:06;3.60;;;1.50;;
9904;SDS011;4991;43.566;27.820;2023-03-14T08:58:35;3.47;;;1.80;;
9904;SDS011;4991;43.566;27.820;2023-03-14T09:01:03;7.63;;;1.70;;
9904;SDS011;4991;43.566;27.820;2023-03-14T09:03:30;4.53;;;1.70;;
9904;SDS011;4991;43.566;27.820;2023-03-14T09:05:56;1.90;;;1.10;;
9904;SDS011;4991;43.566;27.820;2023-03-14T09:08:26;2.97;;;1.23;;
9904;SDS011;4991;43.566;27.820;2023-03-14T09:10:51;2.43;;;1.30;;
9904;SDS011;4991;43.566;27.820;2023-03-14T09:13:17;2.47;;;1.30;;
9904;SDS011;4991;43.566;27.820;2023-03-14T09:15:43;7.33;;;1.20;;
9904;SDS011;4991;43.566;27.820;2023-03-14T09:18:08;2.80;;;1.43;;
9904;SDS011;4991;43.566;27.820;2023-03-14T09:20:34;1.60;;;1.20;;
9904;SDS011;4991;43.566;27.820;2023-03-14T09:22:59;2.53;;;1.43;;
9904;SDS011;4991;43.566;27.820;2023-03-14T09:25:25;1.63;;;1.00;;
9904;SDS011;4991;43.566;27.820;2023-03-14T09:27:51;5.00;;;1.63;;
9904;SDS011;4991;43.566;27.820;2023-03-14T09:30:16;2.57;;;1.37;;
9904;SDS011;4991;43.566;27.820;2023-03-14T09:32:42;2.27;;;1.40;;
9904;SDS011;4991;43.566;27.820;2023-03-14T09:35:08;1.97;;;1.33;;
9904;SDS011;4991;43.566;27.820;2023-03-14T09:37:34;1.53;;;1.20;;
9904;SDS011;4991;43.566;27.820;2023-03-14T09:40:00;1.80;;;1.10;;
9904;SDS011;4991;43.566;27.820;2023-03-14T09:42:33;2.70;;;1.20;;
9904;SDS011;4991;43.566;27.820;2023-03-14T09:45:03;4.37;;;1.50;;
9904;SDS011;4991;43.566;27.820;2023-03-14T09:47:33;3.57;;;1.60;;
9904;SDS011;4991;43.566;27.820;2023-03-14T09:50:03;2.77;;;1.70;;
9904;SDS011;4991;43.566;27.820;2023-03-14T09:52:35;4.60;;;1.70;;
9904;SDS011;4991;43.566;27.820;2023-03-14T09:55:05;2.20;;;1.70;;
9904;SDS011;4991;43.566;27.820;2023-03-14T09:57:40;6.60;;;1.83;;
9904;SDS011;4991;43.566;27.820;2023-03-14T10:00:14;9.93;;;2.17;;
9904;SDS011;4991;43.566;27.820;2023-03-14T10:02:48;2.45;;;1.70;;
9904;SDS011;4991;43.566;27.820;2023-03-14T10:05:21;3.60;;;1.80;;
9904;SDS011;4991;43.566;27.820;2023-03-14T10:07:48;6.13;;;1.83;;
9904;SDS011;4991;43.566;27.820;2023-03-14T10:10:16;4.10;;;1.90;;
9904;SDS011;4991;43.566;27.820;2023-03-14T10:12:45;6.18;;;4.07;;
9904;SDS011;4991;43.566;27.820;2023-03-14T10:15:13;3.83;;;1.80;;
9904;SDS011;4991;43.566;27.820;2023-03-14T10:17:49;2.20;;;1.60;;
9904;SDS011;4991;43.566;27.820;2023-03-14T10:20:30;2.42;;;1.35;;
9904;SDS011;4991;43.566;27.820;2023-03-14T10:23:01;1.80;;;1.60;;
9904;SDS011;4991;43.566;27.820;2023-03-14T10:25:37;4.15;;;1.48;;
9904;SDS011;4991;43.566;27.820;2023-03-14T10:28:10;3.05;;;1.55;;
9904;SDS011;4991;43.566;27.820;2023-03-14T10:30:49;2.22;;;1.52;;
9904;SDS011;4991;43.566;27.820;2023-03-14T10:35:43;2.25;;;1.20;;
9904;SDS011;4991;43.566;27.820;2023-03-14T10:38:13;1.70;;;1.30;;
9904;SDS011;4991;43.566;27.820;2023-03-14T10:40:46;2.13;;;1.35;;
9904;SDS011;4991;43.566;27.820;2023-03-14T10:43:27;6.40;;;1.63;;
9904;SDS011;4991;43.566;27.820;2023-03-14T10:45:58;2.55;;;1.40;;
9904;SDS011;4991;43.566;27.820;2023-03-14T10:53:50;4.35;;;1.92;;
9904;SDS011;4991;43.566;27.820;2023-03-14T10:56:21;6.10;;;1.80;;
9904;SDS011;4991;43.566;27.820;2023-03-14T10:58:50;3.08;;;2.78;;
9904;SDS011;4991;43.566;27.820;2023-03-14T11:07:17;10.43;;;2.03;;
9904;SDS011;4991;43.566;27.820;2023-03-14T11:10:01;3.83;;;1.65;;
9904;SDS011;4991;43.566;27.820;2023-03-14T11:20:38;3.55;;;2.05;;
9904;SDS011;4991;43.566;27.820;2023-03-14T11:23:21;2.13;;;1.73;;
9904;SDS011;4991;43.566;27.820;2023-03-14T11:28:44;2.63;;;1.80;;
9904;SDS011;4991;43.566;27.820;2023-03-14T11:31:35;4.30;;;1.40;;
9904;SDS011;4991;43.566;27.820;2023-03-14T11:36:59;8.95;;;7.15;;
9904;SDS011;4991;43.566;27.820;2023-03-14T11:39:36;1.98;;;1.58;;
9904;SDS011;4991;43.566;27.820;2023-03-14T11:42:04;1.55;;;1.33;;
9904;SDS011;4991;43.566;27.820;2023-03-14T11:44:38;2.30;;;1.70;;
9904;SDS011;4991;43.566;27.820;2023-03-14T11:47:27;2.55;;;0.90;;
9904;SDS011;4991;43.566;27.820;2023-03-14T11:50:15;2.92;;;1.70;;
9904;SDS011;4991;43.566;27.820;2023-03-14T11:52:57;1.42;;;1.23;;
9904;SDS011;4991;43.566;27.820;2023-03-14T11:55:35;1.00;;;0.90;;
9904;SDS011;4991;43.566;27.820;2023-03-14T11:58:09;1.42;;;1.10;;
9904;SDS011;4991;43.566;27.820;2023-03-14T12:00:39;4.35;;;1.55;;
9904;SDS011;4991;43.566;27.820;2023-03-14T12:05:53;7.40;;;2.05;;
9904;SDS011;4991;43.566;27.820;2023-03-14T12:11:17;2.90;;;1.45;;
9904;SDS011;4991;43.566;27.820;2023-03-14T12:13:56;2.47;;;1.38;;
9904;SDS011;4991;43.566;27.820;2023-03-14T12:22:01;3.47;;;1.17;;
9904;SDS011;4991;43.566;27.820;2023-03-14T12:24:49;2.17;;;1.30;;
9904;SDS011;4991;43.566;27.820;2023-03-14T12:30:35;3.97;;;1.20;;
9904;SDS011;4991;43.566;27.820;2023-03-14T12:35:38;2.78;;;1.38;;
9904;SDS011;4991;43.566;27.820;2023-03-14T12:43:25;1.45;;;1.13;;
9904;SDS011;4991;43.566;27.820;2023-03-14T12:46:26;3.25;;;1.30;;
9904;SDS011;4991;43.566;27.820;2023-03-14T12:49:03;2.28;;;1.30;;
9904;SDS011;4991;43.566;27.820;2023-03-14T12:51:35;4.30;;;1.55;;
9904;SDS011;4991;43.566;27.820;2023-03-14T12:54:09;4.90;;;1.73;;
9904;SDS011;4991;43.566;27.820;2023-03-14T12:59:28;2.08;;;1.60;;
9904;SDS011;4991;43.566;27.820;2023-03-14T13:01:55;8.27;;;3.05;;
9904;SDS011;4991;43.566;27.820;2023-03-14T13:05:09;2.42;;;1.50;;
9904;SDS011;4991;43.566;27.820;2023-03-14T13:15:17;5.63;;;1.92;;
9904;SDS011;4991;43.566;27.820;2023-03-14T13:17:46;2.47;;;1.63;;
9904;SDS011;4991;43.566;27.820;2023-03-14T13:20:57;1.90;;;1.42;;
9904;SDS011;4991;43.566;27.820;2023-03-14T13:23:26;3.83;;;2.20;;
9904;SDS011;4991;43.566;27.820;2023-03-14T13:25:54;9.02;;;3.10;;
9904;SDS011;4991;43.566;27.820;2023-03-14T13:28:20;2.70;;;1.50;;
9904;SDS011;4991;43.566;27.820;2023-03-14T13:30:47;8.35;;;2.28;;
9904;SDS011;4991;43.566;27.820;2023-03-14T13:33:16;4.13;;;1.70;;
9904;SDS011;4991;43.566;27.820;2023-03-14T13:35:48;5.15;;;2.10;;
9904;SDS011;4991;43.566;27.820;2023-03-14T13:38:24;4.72;;;1.70;;
9904;SDS011;4991;43.566;27.820;2023-03-14T13:40:51;4.45;;;1.98;;
9904;SDS011;4991;43.566;27.820;2023-03-14T13:43:33;6.45;;;3.70;;
9904;SDS011;4991;43.566;27.820;2023-03-14T13:46:12;2.10;;;1.40;;
9904;SDS011;4991;43.566;27.820;2023-03-14T13:48:58;2.72;;;1.55;;
9904;SDS011;4991;43.566;27.820;2023-03-14T13:51:27;4.57;;;1.40;;
9904;SDS011;4991;43.566;27.820;2023-03-14T13:53:56;2.83;;;1.80;;
9904;SDS011;4991;43.566;27.820;2023-03-14T13:56:27;7.18;;;2.72;;
9904;SDS011;4991;43.566;27.820;2023-03-14T13:58:53;1.85;;;1.60;;
9904;SDS011;4991;43.566;27.820;2023-03-14T14:03:50;1.75;;;1.33;;
9904;SDS011;4991;43.566;27.820;2023-03-14T14:09:30;5.53;;;2.20;;
9904;SDS011;4991;43.566;27.820;2023-03-14T14:12:28;4.43;;;2.17;;
9904;SDS011;4991;43.566;27.820;2023-03-14T14:15:17;5.15;;;1.95;;
9904;SDS011;4991;43.566;27.820;2023-03-14T14:17:51;2.78;;;2.22;;
9904;SDS011;4991;43.566;27.820;2023-03-14T14:20:33;3.60;;;1.77;;
9904;SDS011;4991;43.566;27.820;2023-03-14T14:23:11;3.97;;;1.80;;
9904;SDS011;4991;43.566;27.820;2023-03-14T14:25:43;4.90;;;2.15;;
9904;SDS011;4991;43.566;27.820;2023-03-14T14:28:17;4.83;;;2.03;;
9904;SDS011;4991;43.566;27.820;2023-03-14T14:30:43;4.05;;;1.50;;
9904;SDS011;4991;43.566;27.820;2023-03-14T14:33:17;2.53;;;1.70;;
9904;SDS011;4991;43.566;27.820;2023-03-14T14:36:05;3.27;;;1.70;;
9904;SDS011;4991;43.566;27.820;2023-03-14T14:38:37;5.00;;;2.53;;
9904;SDS011;4991;43.566;27.820;2023-03-14T14:41:03;4.87;;;1.90;;
9904;SDS011;4991;43.566;27.820;2023-03-14T14:43:36;12.27;;;1.90;;
9904;SDS011;4991;43.566;27.820;2023-03-14T14:46:06;1.77;;;1.60;;
9904;SDS011;4991;43.566;27.820;2023-03-14T14:48:35;3.63;;;1.60;;
9904;SDS011;4991;43.566;27.820;2023-03-14T14:51:03;3.43;;;1.63;;
9904;SDS011;4991;43.566;27.820;2023-03-14T14:56:25;1.97;;;1.50;;
9904;SDS011;4991;43.566;27.820;2023-03-14T14:58:57;3.13;;;2.10;;
9904;SDS011;4991;43.566;27.820;2023-03-14T15:01:26;2.90;;;1.80;;
9904;SDS011;4991;43.566;27.820;2023-03-14T15:04:00;3.93;;;2.10;;
9904;SDS011;4991;43.566;27.820;2023-03-14T15:06:28;4.77;;;3.10;;
9904;SDS011;4991;43.566;27.820;2023-03-14T15:08:54;5.93;;;3.30;;
9904;SDS011;4991;43.566;27.820;2023-03-14T15:11:24;8.37;;;3.70;;
9904;SDS011;4991;43.566;27.820;2023-03-14T15:13:51;3.27;;;2.27;;
9904;SDS011;4991;43.566;27.820;2023-03-14T15:16:21;3.70;;;1.90;;
9904;SDS011;4991;43.566;27.820;2023-03-14T15:18:58;3.40;;;2.20;;
9904;SDS011;4991;43.566;27.820;2023-03-14T15:21:26;7.50;;;4.57;;
9904;SDS011;4991;43.566;27.820;2023-03-14T15:23:53;9.57;;;7.10;;
9904;SDS011;4991;43.566;27.820;2023-03-14T15:26:20;13.73;;;10.53;;
9904;SDS011;4991;43.566;27.820;2023-03-14T15:28:49;5.60;;;4.03;;
9904;SDS011;4991;43.566;27.820;2023-03-14T15:31:15;5.60;;;2.10;;
9904;SDS011;4991;43.566;27.820;2023-03-14T15:33:43;2.60;;;2.07;;
9904;SDS011;4991;43.566;27.820;2023-03-14T15:36:26;5.53;;;2.80;;
9904;SDS011;4991;43.566;27.820;2023-03-14T15:38:54;3.93;;;2.80;;
9904;SDS011;4991;43.566;27.820;2023-03-14T15:41:20;5.23;;;2.67;;
9904;SDS011;4991;43.566;27.820;2023-03-14T15:43:47;5.20;;;3.40;;
9904;SDS011;4991;43.566;27.820;2023-03-14T15:46:12;6.43;;;4.20;;
9904;SDS011;4991;43.566;27.820;2023-03-14T15:48:39;8.97;;;5.67;;
9904;SDS011;4991;43.566;27.820;2023-03-14T15:51:05;10.93;;;4.47;;
9904;SDS011;4991;43.566;27.820;2023-03-14T15:53:31;9.40;;;4.27;;
9904;SDS011;4991;43.566;27.820;2023-03-14T15:55:57;5.33;;;3.27;;
9904;SDS011;4991;43.566;27.820;2023-03-14T15:58:22;8.27;;;3.77;;
9904;SDS011;4991;43.566;27.820;2023-03-14T16:00:48;5.03;;;2.60;;
9904;SDS011;4991;43.566;27.820;2023-03-14T16:03:15;3.23;;;2.20;;
9904;SDS011;4991;43.566;27.820;2023-03-14T16:05:40;17.67;;;12.97;;
9904;SDS011;4991;43.566;27.820;2023-03-14T16:08:06;14.90;;;8.70;;
9904;SDS011;4991;43.566;27.820;2023-03-14T16:10:32;10.67;;;3.50;;
9904;SDS011;4991;43.566;27.820;2023-03-14T16:12:58;4.87;;;3.13;;
9904;SDS011;4991;43.566;27.820;2023-03-14T16:15:24;3.50;;;2.70;;
9904;SDS011;4991;43.566;27.820;2023-03-14T16:17:53;4.43;;;3.17;;
9904;SDS011;4991;43.566;27.820;2023-03-14T16:20:19;4.67;;;2.40;;
9904;SDS011;4991;43.566;27.820;2023-03-14T16:22:46;6.10;;;3.60;;
9904;SDS011;4991;43.566;27.820;2023-03-14T16:25:12;7.57;;;3.17;;
9904;SDS011;4991;43.566;27.820;2023-03-14T16:27:38;7.87;;;3.40;;
9904;SDS011;4991;43.566;27.820;2023-03-14T16:30:04;8.50;;;3.40;;